Time;durP1;ratioP1;P1;durP2;ratioP2;P2;SDS_P1;SDS_P2;PMS_P1;PMS_P2;Temp;Humidity;BMP_temperature;BMP_pressure;BME280_temperature;BME280_humidity;BME280_pressure;Samples;Min_cycle;Max_cycle;Signal;HPM_P1;HPM_P2
2023/12/09 00:00:18;;;;;;;;;;;15.70;78.30;;;;;;4183769;28;20066;-55
2023/12/09 00:02:59;;;;;;;;;;;15.70;78.00;;;;;;4190264;28;19995;-52
2023/12/09 00:05:40;;;;;;;;;;;15.80;77.80;;;;;;4190308;28;19932;-52
2023/12/09 00:08:20;;;;;;;;;;;15.80;77.70;;;;;;4190088;28;19935;-55
2023/12/09 00:11:01;;;;;;;;;;;15.90;77.50;;;;;;4190394;28;20371;-53
2023/12/09 00:13:43;;;;;;;;;;;16.00;77.30;;;;;;4189921;28;19935;-54
2023/12/09 00:16:24;;;;;;;;;;;16.00;77.00;;;;;;4190021;28;20017;-53
2023/12/09 00:19:05;;;;;;;;;;;16.00;76.90;;;;;;4189863;28;20416;-53
2023/12/09 00:21:46;;;;;;;;;;;16.00;77.00;;;;;;4190505;28;20303;-55
2023/12/09 00:24:27;;;;;;;;;;;16.00;77.20;;;;;;4189623;28;19947;-52
2023/12/09 00:27:08;;;;;;;;;;;16.00;77.20;;;;;;4189498;28;19935;-51
2023/12/09 00:29:50;;;;;;;;;;;16.00;76.90;;;;;;4189860;28;19931;-53
2023/12/09 00:32:30;;;;;;;;;;;16.20;76.70;;;;;;4189848;28;19935;-54
2023/12/09 00:35:14;;;;;;;;;;;16.20;76.40;;;;;;4189202;28;19987;-51
2023/12/09 00:37:55;;;;;;;;;;;16.30;76.10;;;;;;4205787;28;19959;-54
2023/12/09 00:40:36;;;;;;;;;;;16.30;75.80;;;;;;4205923;28;19951;-51
2023/12/09 00:43:16;;;;;;;;;;;16.30;75.70;;;;;;4206237;28;19947;-50
2023/12/09 00:45:58;;;;;;;;;;;16.30;76.60;;;;;;4206287;28;19935;-53
2023/12/09 00:48:39;;;;;;;;;;;16.30;75.90;;;;;;4205887;28;19935;-54
2023/12/09 00:51:20;;;;;;;;;;;16.30;76.00;;;;;;4171160;28;19936;-53
2023/12/09 00:54:01;;;;;;;;;;;16.40;75.90;;;;;;4156414;28;19971;-54
2023/12/09 00:56:41;;;;;;;;;;;16.40;75.60;;;;;;4166233;28;19940;-54
2023/12/09 00:59:22;;;;;;;;;;;16.40;75.50;;;;;;4172680;28;19932;-53
2023/12/09 01:02:04;;;;;;;;;;;16.40;76.40;;;;;;4183995;28;19994;-52
2023/12/09 01:04:45;;;;;;;;;;;16.50;75.60;;;;;;4189222;28;19932;-53
2023/12/09 01:07:26;;;;;;;;;;;16.50;75.30;;;;;;4189276;28;19951;-53
2023/12/09 01:10:07;;;;;;;;;;;16.50;75.10;;;;;;4189042;28;20066;-54
2023/12/09 01:12:48;;;;;;;;;;;16.60;75.00;;;;;;4188864;28;19970;-52
2023/12/09 01:15:29;;;;;;;;;;;16.50;75.00;;;;;;4188957;28;19966;-52
2023/12/09 01:18:11;;;;;;;;;;;16.50;75.20;;;;;;4189178;28;19931;-52
2023/12/09 01:20:52;;;;;;;;;;;16.50;75.20;;;;;;4188965;28;20395;-55
2023/12/09 01:23:32;;;;;;;;;;;16.40;75.30;;;;;;4188721;28;19950;-52
2023/12/09 01:26:13;;;;;;;;;;;16.40;75.40;;;;;;4186834;28;19935;-54
2023/12/09 01:28:53;;;;;;;;;;;16.40;75.60;;;;;;4188672;28;20030;-52
2023/12/09 01:31:35;;;;;;;;;;;16.30;75.80;;;;;;4204889;28;20296;-55
2023/12/09 01:34:17;;;;;;;;;;;16.20;76.10;;;;;;4204218;28;19935;-53
2023/12/09 01:36:58;;;;;;;;;;;16.20;77.30;;;;;;4204323;28;19935;-56
2023/12/09 01:39:40;;;;;;;;;;;16.10;76.60;;;;;;4205345;28;20698;-55
2023/12/09 01:42:20;;;;;;;;;;;16.10;77.10;;;;;;4205238;28;20710;-55
2023/12/09 01:45:01;;;;;;;;;;;16.10;76.80;;;;;;4205477;28;19950;-53
2023/12/09 01:47:42;;;;;;;;;;;16.10;76.90;;;;;;4204710;28;19931;-53
2023/12/09 01:50:24;;;;;;;;;;;16.00;77.00;;;;;;4205176;28;20002;-53
2023/12/09 01:53:06;;;;;;;;;;;16.00;77.20;;;;;;4204140;28;19931;-51
2023/12/09 01:55:47;;;;;;;;;;;15.90;77.50;;;;;;4205193;28;20017;-52
2023/12/09 01:58:28;;;;;;;;;;;15.90;77.90;;;;;;4204928;28;20682;-52
2023/12/09 02:01:09;;;;;;;;;;;15.90;78.10;;;;;;4204270;28;20386;-55
2023/12/09 02:03:50;;;;;;;;;;;16.00;77.90;;;;;;4204694;28;19935;-55
2023/12/09 02:06:33;;;;;;;;;;;16.10;77.40;;;;;;4205212;28;19935;-54
2023/12/09 02:09:14;;;;;;;;;;;16.20;77.10;;;;;;4190485;28;20478;-54
2023/12/09 02:11:58;;;;;;;;;;;16.20;76.80;;;;;;4187967;28;20382;-51
2023/12/09 02:14:40;;;;;;;;;;;16.20;76.80;;;;;;4187208;28;20390;-51
2023/12/09 02:17:22;;;;;;;;;;;16.40;77.60;;;;;;4187985;28;19931;-51
2023/12/09 02:20:03;;;;;;;;;;;16.40;76.30;;;;;;4187429;28;19930;-50
2023/12/09 02:22:45;;;;;;;;;;;16.40;76.00;;;;;;4186903;28;19931;-47
2023/12/09 02:25:28;;;;;;;;;;;16.50;75.90;;;;;;4191772;28;19935;-46
2023/12/09 02:28:10;;;;;;;;;;;16.40;75.90;;;;;;4204135;28;19935;-48
2023/12/09 02:30:52;;;;;;;;;;;16.50;76.00;;;;;;4205169;28;19932;-47
2023/12/09 02:33:34;;;;;;;;;;;16.60;75.90;;;;;;4204739;28;20442;-47
2023/12/09 02:36:17;;;;;;;;;;;16.70;75.70;;;;;;4190867;28;19931;-49
2023/12/09 02:38:59;;;;;;;;;;;16.60;76.20;;;;;;4187972;28;19932;-48
2023/12/09 02:41:42;;;;;;;;;;;16.60;75.30;;;;;;4187311;28;19967;-48
2023/12/09 02:44:23;;;;;;;;;;;16.60;75.30;;;;;;4171734;28;20409;-47
2023/12/09 02:47:04;;;;;;;;;;;16.60;75.40;;;;;;4171645;28;19936;-48
2023/12/09 02:49:44;;;;;;;;;;;16.50;75.50;;;;;;4180075;28;19939;-49
2023/12/09 02:52:25;;;;;;;;;;;16.50;75.70;;;;;;4187355;28;19974;-47
2023/12/09 02:55:07;;;;;;;;;;;16.40;75.90;;;;;;4187596;28;19977;-46
2023/12/09 02:57:50;;;;;;;;;;;16.50;75.90;;;;;;4187942;28;19935;-48
2023/12/09 03:00:30;;;;;;;;;;;16.50;75.80;;;;;;4190393;28;19936;-46
2023/12/09 03:03:11;;;;;;;;;;;16.50;76.50;;;;;;4190614;28;20062;-48
2023/12/09 03:05:52;;;;;;;;;;;16.50;75.70;;;;;;4191136;28;20498;-47
2023/12/09 03:08:33;;;;;;;;;;;16.40;75.80;;;;;;4191017;28;19935;-49
2023/12/09 03:11:13;;;;;;;;;;;16.40;76.00;;;;;;4190929;28;19931;-49
2023/12/09 03:13:55;;;;;;;;;;;16.30;76.40;;;;;;4207381;28;20309;-47
2023/12/09 03:16:37;;;;;;;;;;;16.30;76.70;;;;;;4207778;28;19935;-47
2023/12/09 03:19:17;;;;;;;;;;;16.30;76.60;;;;;;4207376;28;19935;-45
2023/12/09 03:21:59;;;;;;;;;;;16.40;76.50;;;;;;4207673;28;19930;-49
2023/12/09 03:24:42;;;;;;;;;;;16.40;76.40;;;;;;4207175;28;19931;-47
2023/12/09 03:27:23;;;;;;;;;;;16.30;76.40;;;;;;4174401;28;19932;-47
2023/12/09 03:30:06;;;;;;;;;;;16.30;76.50;;;;;;4174259;28;19967;-47
2023/12/09 03:32:47;;;;;;;;;;;16.30;76.80;;;;;;4174273;28;19932;-47
2023/12/09 03:35:27;;;;;;;;;;;16.20;77.00;;;;;;4174531;28;19931;-47
2023/12/09 03:38:08;;;;;;;;;;;16.10;77.40;;;;;;4197617;27;20396;-47
2023/12/09 03:40:48;;;;;;;;;;;16.10;77.60;;;;;;4207143;28;19935;-47
2023/12/09 03:43:29;;;;;;;;;;;16.30;77.50;;;;;;4207114;28;20018;-46
2023/12/09 03:46:13;;;;;;;;;;;16.40;77.10;;;;;;4205947;28;20057;-50
2023/12/09 03:48:53;;;;;;;;;;;16.50;76.60;;;;;;4204795;28;19935;-47
2023/12/09 03:51:34;;;;;;;;;;;16.60;76.20;;;;;;4190282;28;19931;-48
2023/12/09 03:54:15;;;;;;;;;;;16.70;75.90;;;;;;4190295;28;19931;-48
2023/12/09 03:56:55;;;;;;;;;;;16.70;75.50;;;;;;4188620;28;20013;-47
2023/12/09 03:59:39;;;;;;;;;;;16.70;75.30;;;;;;4188314;28;19931;-49
2023/12/09 04:02:21;;;;;;;;;;;16.70;75.30;;;;;;4189499;28;20809;-47
2023/12/09 04:05:03;;;;;;;;;;;16.70;75.50;;;;;;4190059;28;19935;-48
2023/12/09 04:07:44;;;;;;;;;;;16.70;76.30;;;;;;4189854;28;19939;-47
2023/12/09 04:10:24;;;;;;;;;;;16.80;75.30;;;;;;4189108;28;19974;-46
2023/12/09 04:13:05;;;;;;;;;;;16.90;75.10;;;;;;4189439;28;19935;-46
2023/12/09 04:15:45;;;;;;;;;;;16.80;74.90;;;;;;4189370;28;19931;-48
2023/12/09 04:18:28;;;;;;;;;;;16.80;74.90;;;;;;4189528;28;19936;-46
2023/12/09 04:21:08;;;;;;;;;;;16.80;74.90;;;;;;4188342;28;19932;-47
2023/12/09 04:23:49;;;;;;;;;;;16.80;75.00;;;;;;4189771;28;20327;-48
2023/12/09 04:26:30;;;;;;;;;;;16.70;76.10;;;;;;4188640;28;19969;-48
2023/12/09 04:29:11;;;;;;;;;;;16.70;75.60;;;;;;4187303;28;19936;-49
2023/12/09 04:31:51;;;;;;;;;;;16.70;75.60;;;;;;4189163;28;19931;-46
2023/12/09 04:34:33;;;;;;;;;;;16.70;76.50;;;;;;4189563;28;19951;-46
2023/12/09 04:37:14;;;;;;;;;;;16.70;75.60;;;;;;4189552;28;19935;-46
2023/12/09 04:39:55;;;;;;;;;;;16.60;75.60;;;;;;4189167;28;19944;-46
2023/12/09 04:42:35;;;;;;;;;;;16.60;75.80;;;;;;4189502;28;20403;-47
2023/12/09 04:45:16;;;;;;;;;;;16.50;76.10;;;;;;4189195;28;20299;-46
2023/12/09 04:47:56;;;;;;;;;;;16.40;76.30;;;;;;4188975;28;20017;-47
2023/12/09 04:50:39;;;;;;;;;;;16.40;76.60;;;;;;4188621;28;19966;-46
2023/12/09 04:53:20;;;;;;;;;;;16.40;77.70;;;;;;4189576;28;19997;-46
2023/12/09 04:56:01;;;;;;;;;;;16.30;76.90;;;;;;4188766;28;20315;-47
2023/12/09 04:58:41;;;;;;;;;;;16.30;77.20;;;;;;4189034;28;20062;-48
2023/12/09 05:01:23;;;;;;;;;;;16.30;77.30;;;;;;4189188;28;19935;-48
2023/12/09 05:04:04;;;;;;;;;;;16.30;77.10;;;;;;4189234;28;20347;-49
2023/12/09 05:06:46;;;;;;;;;;;16.40;77.00;;;;;;4189127;28;19947;-47
2023/12/09 05:09:27;;;;;;;;;;;16.50;77.80;;;;;;4188442;28;19936;-46
2023/12/09 05:12:08;;;;;;;;;;;16.50;76.80;;;;;;4172091;28;19935;-47
2023/12/09 05:14:49;;;;;;;;;;;16.50;76.60;;;;;;4176043;28;19931;-47
2023/12/09 05:17:30;;;;;;;;;;;16.50;76.70;;;;;;4188911;28;19936;-47
2023/12/09 05:20:11;;;;;;;;;;;16.50;76.80;;;;;;4188453;28;19931;-47
2023/12/09 05:22:53;;;;;;;;;;;16.50;76.60;;;;;;4187357;28;19931;-47
2023/12/09 05:25:34;;;;;;;;;;;16.60;76.30;;;;;;4188033;28;20485;-47
2023/12/09 05:28:15;;;;;;;;;;;16.60;76.10;;;;;;4188132;28;19947;-47
2023/12/09 05:30:56;;;;;;;;;;;16.70;76.10;;;;;;4187713;28;19931;-47
2023/12/09 05:33:36;;;;;;;;;;;16.70;75.90;;;;;;4188446;28;19932;-47
2023/12/09 05:36:17;;;;;;;;;;;16.80;75.60;;;;;;4171752;28;19953;-47
2023/12/09 05:38:59;;;;;;;;;;;16.80;75.50;;;;;;4185892;28;19931;-52
2023/12/09 05:41:41;;;;;;;;;;;16.70;75.50;;;;;;4188333;28;19932;-51
2023/12/09 05:44:22;;;;;;;;;;;16.70;76.60;;;;;;4187551;28;19973;-51
2023/12/09 05:47:03;;;;;;;;;;;16.60;75.90;;;;;;4188238;28;19963;-51
2023/12/09 05:49:44;;;;;;;;;;;16.50;76.20;;;;;;4188255;28;19935;-53
2023/12/09 05:52:25;;;;;;;;;;;16.50;77.30;;;;;;4188761;28;19950;-52
2023/12/09 05:55:08;;;;;;;;;;;16.50;76.60;;;;;;4187986;28;20042;-54
2023/12/09 05:57:48;;;;;;;;;;;16.40;76.70;;;;;;4171465;28;19959;-52
2023/12/09 06:00:29;;;;;;;;;;;16.30;76.90;;;;;;4170262;28;19932;-50
2023/12/09 06:03:10;;;;;;;;;;;16.30;77.10;;;;;;4181947;28;19931;-52
2023/12/09 06:05:50;;;;;;;;;;;16.20;77.40;;;;;;4172898;28;19935;-54
2023/12/09 06:08:31;;;;;;;;;;;16.20;77.80;;;;;;4188484;28;19931;-54
2023/12/09 06:11:13;;;;;;;;;;;16.10;79.00;;;;;;4188322;28;20264;-46
2023/12/09 06:13:54;;;;;;;;;;;16.20;78.20;;;;;;4187824;28;20050;-47
2023/12/09 06:16:35;;;;;;;;;;;16.30;77.90;;;;;;4187745;28;19951;-46
2023/12/09 06:19:15;;;;;;;;;;;16.50;77.50;;;;;;4188116;28;19932;-48
2023/12/09 06:21:56;;;;;;;;;;;16.60;77.10;;;;;;4188029;28;20049;-47
2023/12/09 06:24:37;;;;;;;;;;;16.70;76.70;;;;;;4188009;28;19931;-48
2023/12/09 06:27:18;;;;;;;;;;;16.80;77.00;;;;;;4187923;28;19967;-47
2023/12/09 06:29:59;;;;;;;;;;;16.90;75.70;;;;;;4187897;28;19935;-47
2023/12/09 06:32:41;;;;;;;;;;;17.00;75.30;;;;;;4187986;28;20011;-47
2023/12/09 06:35:22;;;;;;;;;;;17.00;75.20;;;;;;4187357;28;19935;-48
2023/12/09 06:38:03;;;;;;;;;;;17.00;75.00;;;;;;4187728;28;19932;-48
2023/12/09 06:40:44;;;;;;;;;;;17.00;75.10;;;;;;4187500;28;19936;-47
2023/12/09 06:43:27;;;;;;;;;;;17.00;75.50;;;;;;4187407;28;24339;-47
2023/12/09 06:46:08;;;;;;;;;;;17.00;75.60;;;;;;4187027;28;19932;-47
2023/12/09 06:48:49;;;;;;;;;;;16.90;75.80;;;;;;4181875;28;20013;-47
2023/12/09 06:51:30;;;;;;;;;;;16.90;75.90;;;;;;4170103;28;20337;-48
2023/12/09 06:54:11;;;;;;;;;;;17.00;75.70;;;;;;4190086;28;20005;-47
2023/12/09 06:56:52;;;;;;;;;;;17.00;75.40;;;;;;4204026;28;20417;-48
2023/12/09 06:59:34;;;;;;;;;;;17.00;75.30;;;;;;4203859;28;20448;-48
2023/12/09 07:02:14;;;;;;;;;;;17.10;76.10;;;;;;4183054;28;20017;-47
2023/12/09 07:04:55;;;;;;;;;;;17.00;75.10;;;;;;4186523;28;20086;-48
2023/12/09 07:07:36;;;;;;;;;;;17.00;75.00;;;;;;4185461;28;20009;-47
2023/12/09 07:10:16;;;;;;;;;;;17.00;75.00;;;;;;4183725;28;20106;-47
2023/12/09 07:12:57;;;;;;;;;;;16.90;75.20;;;;;;4198036;28;19932;-47
2023/12/09 07:15:39;;;;;;;;;;;16.80;75.50;;;;;;4187147;28;19934;-47
2023/12/09 07:18:20;;;;;;;;;;;16.80;75.60;;;;;;4189675;28;19931;-47
2023/12/09 07:21:01;;;;;;;;;;;16.70;75.10;;;;;;4186740;28;19989;-47
2023/12/09 07:23:42;;;;;;;;;;;16.60;75.50;;;;;;4187615;28;19932;-47
2023/12/09 07:26:23;;;;;;;;;;;16.70;76.50;;;;;;4187272;28;19935;-47
2023/12/09 07:29:05;;;;;;;;;;;16.70;76.20;;;;;;4199418;28;20510;-48
2023/12/09 07:31:47;;;;;;;;;;;16.70;75.50;;;;;;4203696;28;19950;-47
2023/12/09 07:34:28;;;;;;;;;;;16.80;74.70;;;;;;4189323;28;19931;-47
2023/12/09 07:37:12;;;;;;;;;;;16.80;74.40;;;;;;4186919;28;19932;-48
2023/12/09 07:39:52;;;;;;;;;;;16.80;74.00;;;;;;4186865;28;20394;-47
2023/12/09 07:42:33;;;;;;;;;;;16.80;74.50;;;;;;4202740;28;20390;-48
2023/12/09 07:45:14;;;;;;;;;;;16.70;73.30;;;;;;4205197;28;19935;-47
2023/12/09 07:47:56;;;;;;;;;;;16.70;72.90;;;;;;4193153;28;19931;-48
2023/12/09 07:50:37;;;;;;;;;;;16.60;72.50;;;;;;4170030;28;19935;-47
2023/12/09 07:53:18;;;;;;;;;;;16.60;72.40;;;;;;4186963;28;19987;-48
2023/12/09 07:55:59;;;;;;;;;;;16.50;72.70;;;;;;4190394;28;19932;-48
2023/12/09 07:58:39;;;;;;;;;;;16.40;73.90;;;;;;4190051;28;19939;-46
2023/12/09 08:01:20;;;;;;;;;;;16.40;74.70;;;;;;4187587;28;20274;-47
2023/12/09 08:04:02;;;;;;;;;;;16.40;73.40;;;;;;4192414;28;19935;-47
2023/12/09 08:06:43;;;;;;;;;;;16.40;73.30;;;;;;4186805;28;20410;-47
2023/12/09 08:09:24;;;;;;;;;;;16.30;73.20;;;;;;4189723;28;19934;-46
2023/12/09 08:12:04;;;;;;;;;;;16.30;73.00;;;;;;4185833;28;19931;-47
2023/12/09 08:14:45;;;;;;;;;;;16.30;72.90;;;;;;4189538;28;19935;-47
2023/12/09 08:17:26;;;;;;;;;;;16.30;72.80;;;;;;4189203;28;19932;-47
2023/12/09 08:20:11;;;;;;;;;;;16.30;72.40;;;;;;4186993;28;20058;-48
2023/12/09 08:22:51;;;;;;;;;;;16.30;72.20;;;;;;4191260;28;19932;-54
2023/12/09 08:25:32;;;;;;;;;;;16.30;72.30;;;;;;4175642;28;19931;-56
2023/12/09 08:28:14;;;;;;;;;;;16.20;72.40;;;;;;4176660;28;19936;-55
2023/12/09 08:30:54;;;;;;;;;;;16.20;72.90;;;;;;4173314;28;19932;-55
2023/12/09 08:33:35;;;;;;;;;;;16.20;72.90;;;;;;4187570;28;19931;-54
2023/12/09 08:36:17;;;;;;;;;;;16.30;72.60;;;;;;4189766;28;20516;-48
2023/12/09 08:38:58;;;;;;;;;;;16.30;72.60;;;;;;4172722;28;19932;-48
2023/12/09 08:41:39;;;;;;;;;;;16.40;72.20;;;;;;4184712;28;19935;-51
2023/12/09 08:44:20;;;;;;;;;;;16.30;72.30;;;;;;4189352;28;20050;-47
2023/12/09 08:47:01;;;;;;;;;;;16.40;72.40;;;;;;4188548;28;19959;-47
2023/12/09 08:49:43;;;;;;;;;;;16.30;72.30;;;;;;4188244;28;19940;-46
2023/12/09 08:52:25;;;;;;;;;;;16.20;73.20;;;;;;4187351;28;20446;-47
2023/12/09 08:55:06;;;;;;;;;;;16.20;72.50;;;;;;4191088;28;19931;-46
2023/12/09 08:57:48;;;;;;;;;;;16.20;73.10;;;;;;4168682;28;19936;-46
2023/12/09 09:00:30;;;;;;;;;;;16.10;73.30;;;;;;4185865;28;19930;-47
2023/12/09 09:03:10;;;;;;;;;;;16.10;73.30;;;;;;4187962;28;20511;-51
2023/12/09 09:05:51;;;;;;;;;;;16.10;73.20;;;;;;4181535;28;20464;-54
2023/12/09 09:08:34;;;;;;;;;;;16.10;73.10;;;;;;4171962;28;19932;-53
2023/12/09 09:11:14;;;;;;;;;;;16.00;73.10;;;;;;4185856;28;19935;-54
2023/12/09 09:13:55;;;;;;;;;;;16.00;73.10;;;;;;4186848;28;20357;-53
2023/12/09 09:16:36;;;;;;;;;;;16.00;73.20;;;;;;4188142;28;19935;-52
2023/12/09 09:19:16;;;;;;;;;;;16.00;73.30;;;;;;4187465;28;19935;-52
2023/12/09 09:21:57;;;;;;;;;;;16.10;73.50;;;;;;4187108;28;19935;-50
2023/12/09 09:24:39;;;;;;;;;;;16.30;72.90;;;;;;4172195;28;20048;-50
2023/12/09 09:27:20;;;;;;;;;;;16.50;71.50;;;;;;4180391;28;20001;-48
2023/12/09 09:30:01;;;;;;;;;;;17.00;69.60;;;;;;4186161;28;19939;-52
2023/12/09 09:32:41;;;;;;;;;;;17.40;67.80;;;;;;4187950;28;20403;-51
2023/12/09 09:35:22;;;;;;;;;;;17.80;66.40;;;;;;4161954;28;19931;-50
2023/12/09 09:38:03;;;;;;;;;;;18.20;64.60;;;;;;4181079;28;20406;-51
2023/12/09 09:40:45;;;;;;;;;;;18.60;63.20;;;;;;4177175;28;20425;-51
2023/12/09 09:43:31;;;;;;;;;;;19.00;61.50;;;;;;4194118;28;19938;-51
2023/12/09 09:46:13;;;;;;;;;;;19.40;60.90;;;;;;4172799;28;19936;-48
2023/12/09 09:48:56;;;;;;;;;;;19.60;60.70;;;;;;4197907;28;19969;-47
2023/12/09 09:51:38;;;;;;;;;;;19.80;59.30;;;;;;4180481;28;20379;-47
2023/12/09 09:54:21;;;;;;;;;;;19.90;58.60;;;;;;4196085;28;19938;-47
2023/12/09 09:57:03;;;;;;;;;;;19.90;58.20;;;;;;4174780;28;20449;-46
2023/12/09 09:59:44;;;;;;;;;;;19.90;58.10;;;;;;4202726;28;19935;-47
2023/12/09 10:02:26;;;;;;;;;;;19.90;58.10;;;;;;4171535;28;19989;-51
2023/12/09 10:05:08;;;;;;;;;;;19.80;58.40;;;;;;4202473;28;19935;-52
2023/12/09 10:07:49;;;;;;;;;;;19.60;58.50;;;;;;4176682;28;20045;-52
2023/12/09 10:10:32;;;;;;;;;;;19.40;58.70;;;;;;4200848;28;20036;-52
2023/12/09 10:13:15;;;;;;;;;;;19.40;59.00;;;;;;4197786;28;19935;-52
2023/12/09 10:15:56;;;;;;;;;;;19.40;59.00;;;;;;4185194;28;20024;-52
2023/12/09 10:18:37;;;;;;;;;;;19.50;58.90;;;;;;4184113;28;20098;-54
2023/12/09 10:21:18;;;;;;;;;;;19.50;58.80;;;;;;4185241;28;19930;-53
2023/12/09 10:23:58;;;;;;;;;;;19.60;59.00;;;;;;4186215;28;19942;-51
2023/12/09 10:26:39;;;;;;;;;;;19.60;59.20;;;;;;4187106;28;20054;-53
2023/12/09 10:29:22;;;;;;;;;;;19.60;58.20;;;;;;4188056;28;19969;-56
2023/12/09 10:32:02;;;;;;;;;;;19.70;58.10;;;;;;4184557;28;19932;-55
2023/12/09 10:34:44;;;;;;;;;;;19.80;58.30;;;;;;4187676;28;19931;-53
2023/12/09 10:37:24;;;;;;;;;;;19.80;58.40;;;;;;4187637;28;20066;-48
2023/12/09 10:40:06;;;;;;;;;;;19.80;58.40;;;;;;4187984;28;20386;-48
2023/12/09 10:42:48;;;;;;;;;;;19.80;59.10;;;;;;4187398;28;20398;-50
2023/12/09 10:45:30;;;;;;;;;;;19.80;58.40;;;;;;4187329;28;20339;-52
2023/12/09 10:48:10;;;;;;;;;;;19.80;58.40;;;;;;4187501;28;19930;-55
2023/12/09 10:50:51;;;;;;;;;;;19.90;58.60;;;;;;4181995;28;20070;-51
2023/12/09 10:53:32;;;;;;;;;;;19.90;58.40;;;;;;4204325;28;19932;-52
2023/12/09 10:56:13;;;;;;;;;;;19.90;58.40;;;;;;4179391;28;19934;-51
2023/12/09 10:58:54;;;;;;;;;;;20.00;59.00;;;;;;4169428;28;20391;-52
2023/12/09 11:01:36;;;;;;;;;;;19.90;58.00;;;;;;4186796;28;19935;-54
2023/12/09 11:04:16;;;;;;;;;;;19.90;58.10;;;;;;4182875;28;19931;-54
2023/12/09 11:06:59;;;;;;;;;;;19.80;58.90;;;;;;4177675;28;20591;-52
2023/12/09 11:09:41;;;;;;;;;;;19.70;58.20;;;;;;4187553;28;20489;-51
2023/12/09 11:12:27;;;;;;;;;;;19.60;58.50;;;;;;4187504;28;19932;-54
2023/12/09 11:15:17;;;;;;;;;;;19.60;58.60;;;;;;4187617;28;19932;-52
2023/12/09 11:18:08;;;;;;;;;;;19.60;58.60;;;;;;4180331;28;19931;-51
2023/12/09 11:20:52;;;;;;;;;;;19.60;58.50;;;;;;4184554;28;20497;-51
2023/12/09 11:23:33;;;;;;;;;;;19.70;58.40;;;;;;4173621;28;19948;-52
2023/12/09 11:26:15;;;;;;;;;;;19.70;58.20;;;;;;4173850;28;20002;-51
2023/12/09 11:28:57;;;;;;;;;;;19.60;58.20;;;;;;4172749;28;19947;-52
2023/12/09 11:31:39;;;;;;;;;;;19.50;58.20;;;;;;4174102;28;20063;-51
2023/12/09 11:34:21;;;;;;;;;;;19.40;58.60;;;;;;4175854;28;20021;-52
2023/12/09 11:37:05;;;;;;;;;;;19.40;59.00;;;;;;4188776;28;19932;-52
2023/12/09 11:39:45;;;;;;;;;;;19.40;59.00;;;;;;4186977;28;20061;-51
2023/12/09 11:42:27;;;;;;;;;;;19.40;59.10;;;;;;4187339;28;19935;-52
2023/12/09 11:45:09;;;;;;;;;;;19.50;58.90;;;;;;4183460;28;20018;-52
2023/12/09 11:47:50;;;;;;;;;;;19.50;58.70;;;;;;4173125;28;19999;-51
2023/12/09 11:50:33;;;;;;;;;;;19.60;58.50;;;;;;4174249;28;19978;-47
2023/12/09 11:53:13;;;;;;;;;;;19.70;58.50;;;;;;4183916;28;19935;-47
2023/12/09 11:55:54;;;;;;;;;;;19.70;58.30;;;;;;4181019;28;20141;-49
2023/12/09 11:58:35;;;;;;;;;;;19.80;58.60;;;;;;4190109;28;20485;-51
2023/12/09 12:01:18;;;;;;;;;;;19.80;59.00;;;;;;4160891;28;19936;-52
2023/12/09 12:03:58;;;;;;;;;;;19.80;59.50;;;;;;4188325;28;19931;-53
2023/12/09 12:06:41;;;;;;;;;;;19.70;61.00;;;;;;4172782;28;19932;-52
2023/12/09 12:09:22;;;;;;;;;;;19.60;60.60;;;;;;4206435;28;20405;-51
2023/12/09 12:12:04;;;;;;;;;;;19.60;61.20;;;;;;4206449;28;19934;-52
2023/12/09 12:14:46;;;;;;;;;;;19.60;61.20;;;;;;4204852;28;20388;-54
2023/12/09 12:17:28;;;;;;;;;;;19.70;61.20;;;;;;4183551;28;19935;-53
2023/12/09 12:20:11;;;;;;;;;;;19.80;61.00;;;;;;4190459;28;19958;-50
2023/12/09 12:22:53;;;;;;;;;;;19.90;60.80;;;;;;4189357;28;20363;-50
2023/12/09 12:25:36;;;;;;;;;;;19.90;60.70;;;;;;4188610;28;20054;-48
2023/12/09 12:28:17;;;;;;;;;;;20.00;60.50;;;;;;4189896;28;20066;-48
2023/12/09 12:31:00;;;;;;;;;;;20.10;60.30;;;;;;4192375;28;20287;-50
2023/12/09 12:33:41;;;;;;;;;;;20.10;60.00;;;;;;4206234;28;19935;-48
2023/12/09 12:36:22;;;;;;;;;;;20.10;60.00;;;;;;4184555;28;19966;-47
2023/12/09 12:39:05;;;;;;;;;;;20.20;60.10;;;;;;4188663;28;19931;-47
2023/12/09 12:41:47;;;;;;;;;;;20.20;59.90;;;;;;4187877;28;20009;-48
2023/12/09 12:44:28;;;;;;;;;;;20.20;59.90;;;;;;4189295;28;19936;-48
2023/12/09 12:47:09;;;;;;;;;;;20.20;60.10;;;;;;4173322;28;19935;-49
2023/12/09 12:49:50;;;;;;;;;;;20.10;60.00;;;;;;4177896;28;20497;-48
2023/12/09 12:52:31;;;;;;;;;;;20.10;60.80;;;;;;4172271;28;20292;-50
2023/12/09 12:55:13;;;;;;;;;;;20.10;61.10;;;;;;4188130;28;20038;-48
2023/12/09 12:57:55;;;;;;;;;;;20.00;61.30;;;;;;4187906;28;20406;-48
2023/12/09 13:00:36;;;;;;;;;;;20.00;61.40;;;;;;4188546;28;19935;-48
2023/12/09 13:03:18;;;;;;;;;;;20.00;61.50;;;;;;4188867;28;19947;-48
2023/12/09 13:05:59;;;;;;;;;;;19.90;62.10;;;;;;4188381;28;20054;-49
2023/12/09 13:08:40;;;;;;;;;;;19.90;61.30;;;;;;4188804;28;20389;-48
2023/12/09 13:11:22;;;;;;;;;;;19.90;61.50;;;;;;4202689;28;19931;-48
2023/12/09 13:14:03;;;;;;;;;;;19.90;61.40;;;;;;4171881;28;19931;-48
2023/12/09 13:16:45;;;;;;;;;;;19.90;61.50;;;;;;4186839;28;19935;-47
2023/12/09 13:19:25;;;;;;;;;;;19.90;61.60;;;;;;4188933;28;19931;-49
2023/12/09 13:22:06;;;;;;;;;;;19.90;61.40;;;;;;4188740;28;19939;-48
2023/12/09 13:24:47;;;;;;;;;;;19.90;62.30;;;;;;4191936;28;19967;-49
2023/12/09 13:27:29;;;;;;;;;;;19.80;61.50;;;;;;4204863;28;19977;-47
2023/12/09 13:30:10;;;;;;;;;;;19.80;61.60;;;;;;4204976;28;19931;-51
2023/12/09 13:32:51;;;;;;;;;;;19.80;62.30;;;;;;4184709;28;19936;-54
2023/12/09 13:35:32;;;;;;;;;;;19.80;61.50;;;;;;4171536;28;19935;-48
2023/12/09 13:38:13;;;;;;;;;;;19.80;61.60;;;;;;4174844;28;20038;-51
2023/12/09 13:40:53;;;;;;;;;;;19.80;61.70;;;;;;4187813;28;19936;-51
2023/12/09 13:43:35;;;;;;;;;;;19.80;61.50;;;;;;4187215;28;19931;-52
2023/12/09 13:46:16;;;;;;;;;;;19.80;61.40;;;;;;4171980;28;19932;-55
2023/12/09 13:48:57;;;;;;;;;;;19.80;61.50;;;;;;4170567;28;19935;-51
2023/12/09 13:51:39;;;;;;;;;;;19.70;61.50;;;;;;4171240;28;19999;-52
2023/12/09 13:54:22;;;;;;;;;;;19.70;61.70;;;;;;4187954;28;20402;-52
2023/12/09 13:57:04;;;;;;;;;;;19.70;62.40;;;;;;4187934;28;20066;-52
2023/12/09 13:59:46;;;;;;;;;;;19.70;61.60;;;;;;4187460;28;19931;-50
2023/12/09 14:02:27;;;;;;;;;;;19.70;61.70;;;;;;4188314;28;19993;-47
2023/12/09 14:05:09;;;;;;;;;;;19.60;61.90;;;;;;4200447;28;19992;-47
2023/12/09 14:07:50;;;;;;;;;;;19.60;61.90;;;;;;4204446;28;19931;-47
2023/12/09 14:10:32;;;;;;;;;;;19.60;61.80;;;;;;4205852;28;19935;-48
2023/12/09 14:13:14;;;;;;;;;;;19.50;61.80;;;;;;4204320;28;19950;-48
2023/12/09 14:15:56;;;;;;;;;;;19.50;62.00;;;;;;4188068;28;19943;-51
2023/12/09 14:18:37;;;;;;;;;;;19.40;62.10;;;;;;4191748;28;20069;-51
2023/12/09 14:21:18;;;;;;;;;;;19.30;62.30;;;;;;4201275;28;19934;-51
2023/12/09 14:23:59;;;;;;;;;;;19.30;62.70;;;;;;4193522;28;19935;-51
2023/12/09 14:26:40;;;;;;;;;;;19.30;62.70;;;;;;4205147;28;19931;-51
2023/12/09 14:29:21;;;;;;;;;;;19.30;62.80;;;;;;4204446;28;20444;-47
2023/12/09 14:32:03;;;;;;;;;;;19.30;62.80;;;;;;4204513;28;19973;-47
2023/12/09 14:34:43;;;;;;;;;;;19.30;62.80;;;;;;4202277;28;20013;-48
2023/12/09 14:37:25;;;;;;;;;;;19.30;62.80;;;;;;4191019;28;19936;-51
2023/12/09 14:40:06;;;;;;;;;;;19.30;62.80;;;;;;4187279;28;19931;-50
2023/12/09 14:42:47;;;;;;;;;;;19.30;62.60;;;;;;4187552;28;19935;-50
2023/12/09 14:45:28;;;;;;;;;;;19.30;62.40;;;;;;4200405;28;20314;-46
2023/12/09 14:48:11;;;;;;;;;;;19.30;62.50;;;;;;4152955;28;19932;-47
2023/12/09 14:50:53;;;;;;;;;;;19.40;62.40;;;;;;4170342;28;20075;-47
2023/12/09 14:53:34;;;;;;;;;;;19.30;62.40;;;;;;4170498;28;19940;-48
2023/12/09 14:56:15;;;;;;;;;;;19.30;62.20;;;;;;4171788;28;19935;-48
2023/12/09 14:58:55;;;;;;;;;;;19.40;62.10;;;;;;4187081;28;19995;-47
2023/12/09 15:01:36;;;;;;;;;;;19.40;61.90;;;;;;4188116;28;19935;-50
2023/12/09 15:04:19;;;;;;;;;;;19.40;61.80;;;;;;4187487;28;19950;-51
2023/12/09 15:06:59;;;;;;;;;;;19.40;61.80;;;;;;4187075;28;20010;-51
2023/12/09 15:09:41;;;;;;;;;;;19.40;62.50;;;;;;4187834;28;20081;-50
2023/12/09 15:12:22;;;;;;;;;;;19.40;61.60;;;;;;4187409;28;19974;-50
2023/12/09 15:15:02;;;;;;;;;;;19.40;61.50;;;;;;4188066;28;19931;-50
2023/12/09 15:17:43;;;;;;;;;;;19.40;61.40;;;;;;4185321;28;20383;-51
2023/12/09 15:20:26;;;;;;;;;;;19.50;61.40;;;;;;4187224;28;20314;-50
2023/12/09 15:23:07;;;;;;;;;;;19.50;61.40;;;;;;4187289;28;19935;-50
2023/12/09 15:25:48;;;;;;;;;;;19.50;61.50;;;;;;4185671;28;19931;-50
2023/12/09 15:28:29;;;;;;;;;;;19.50;61.70;;;;;;4196325;28;19931;-54
2023/12/09 15:31:09;;;;;;;;;;;19.50;61.70;;;;;;4187785;28;20421;-52
2023/12/09 15:33:51;;;;;;;;;;;19.40;61.80;;;;;;4203660;28;19931;-51
2023/12/09 15:36:34;;;;;;;;;;;19.40;62.10;;;;;;4169961;28;19951;-52